sensor_id;sensor_type;location;lat;lon;timestamp;P1;durP1;ratioP1;P2;durP2;ratioP2
12816;SDS011;6473;51.552;6.716;2023-05-14T00:02:11;12.07;;;10.95;;
12816;SDS011;6473;51.552;6.716;2023-05-14T00:04:38;11.30;;;10.27;;
12816;SDS011;6473;51.552;6.716;2023-05-14T00:07:06;11.27;;;10.25;;
12816;SDS011;6473;51.552;6.716;2023-05-14T00:09:33;11.52;;;10.55;;
12816;SDS011;6473;51.552;6.716;2023-05-14T00:12:02;12.50;;;11.40;;
12816;SDS011;6473;51.552;6.716;2023-05-14T00:14:29;12.52;;;11.43;;
12816;SDS011;6473;51.552;6.716;2023-05-14T00:16:56;11.65;;;10.50;;
12816;SDS011;6473;51.552;6.716;2023-05-14T00:19:23;11.60;;;10.60;;
12816;SDS011;6473;51.552;6.716;2023-05-14T00:21:50;12.48;;;11.35;;
12816;SDS011;6473;51.552;6.716;2023-05-14T00:24:17;11.73;;;10.63;;
12816;SDS011;6473;51.552;6.716;2023-05-14T00:26:44;12.80;;;11.60;;
12816;SDS011;6473;51.552;6.716;2023-05-14T00:29:13;12.40;;;11.30;;
12816;SDS011;6473;51.552;6.716;2023-05-14T00:31:40;13.43;;;12.13;;
12816;SDS011;6473;51.552;6.716;2023-05-14T00:34:07;12.52;;;11.30;;
12816;SDS011;6473;51.552;6.716;2023-05-14T00:36:34;14.02;;;12.73;;
12816;SDS011;6473;51.552;6.716;2023-05-14T00:39:00;13.77;;;11.82;;
12816;SDS011;6473;51.552;6.716;2023-05-14T00:41:27;13.10;;;12.00;;
12816;SDS011;6473;51.552;6.716;2023-05-14T00:43:54;12.95;;;11.85;;
12816;SDS011;6473;51.552;6.716;2023-05-14T00:46:23;13.15;;;12.05;;
12816;SDS011;6473;51.552;6.716;2023-05-14T00:48:50;15.60;;;14.10;;
12816;SDS011;6473;51.552;6.716;2023-05-14T00:51:17;13.60;;;12.30;;
12816;SDS011;6473;51.552;6.716;2023-05-14T00:53:44;12.82;;;11.63;;
12816;SDS011;6473;51.552;6.716;2023-05-14T00:56:11;13.10;;;12.00;;
12816;SDS011;6473;51.552;6.716;2023-05-14T00:58:39;12.88;;;11.75;;
12816;SDS011;6473;51.552;6.716;2023-05-14T01:01:06;13.18;;;11.98;;
12816;SDS011;6473;51.552;6.716;2023-05-14T01:06:17;13.13;;;12.02;;
12816;SDS011;6473;51.552;6.716;2023-05-14T01:08:55;12.30;;;11.30;;
12816;SDS011;6473;51.552;6.716;2023-05-14T01:11:29;12.63;;;11.52;;
12816;SDS011;6473;51.552;6.716;2023-05-14T01:14:02;13.00;;;11.63;;
12816;SDS011;6473;51.552;6.716;2023-05-14T01:16:37;13.40;;;12.13;;
12816;SDS011;6473;51.552;6.716;2023-05-14T01:19:06;13.55;;;12.25;;
12816;SDS011;6473;51.552;6.716;2023-05-14T01:21:46;12.73;;;11.52;;
12816;SDS011;6473;51.552;6.716;2023-05-14T01:24:13;13.32;;;12.02;;
12816;SDS011;6473;51.552;6.716;2023-05-14T01:26:40;13.02;;;11.68;;
12816;SDS011;6473;51.552;6.716;2023-05-14T01:29:13;12.55;;;11.45;;
12816;SDS011;6473;51.552;6.716;2023-05-14T01:31:45;12.85;;;11.68;;
12816;SDS011;6473;51.552;6.716;2023-05-14T01:34:13;12.65;;;11.55;;
12816;SDS011;6473;51.552;6.716;2023-05-14T01:36:41;12.77;;;11.60;;
12816;SDS011;6473;51.552;6.716;2023-05-14T01:39:10;13.15;;;11.95;;
12816;SDS011;6473;51.552;6.716;2023-05-14T01:41:39;12.13;;;11.07;;
12816;SDS011;6473;51.552;6.716;2023-05-14T01:44:08;12.05;;;10.82;;
12816;SDS011;6473;51.552;6.716;2023-05-14T01:46:36;14.15;;;11.55;;
12816;SDS011;6473;51.552;6.716;2023-05-14T01:49:03;13.63;;;12.32;;
12816;SDS011;6473;51.552;6.716;2023-05-14T01:51:29;13.88;;;12.52;;
12816;SDS011;6473;51.552;6.716;2023-05-14T01:53:56;15.00;;;12.57;;
12816;SDS011;6473;51.552;6.716;2023-05-14T01:56:24;13.32;;;12.13;;
12816;SDS011;6473;51.552;6.716;2023-05-14T01:58:51;13.73;;;12.35;;
12816;SDS011;6473;51.552;6.716;2023-05-14T02:01:20;13.23;;;11.93;;
12816;SDS011;6473;51.552;6.716;2023-05-14T02:03:47;14.02;;;12.75;;
12816;SDS011;6473;51.552;6.716;2023-05-14T02:06:14;14.40;;;12.90;;
12816;SDS011;6473;51.552;6.716;2023-05-14T02:08:41;12.07;;;10.98;;
12816;SDS011;6473;51.552;6.716;2023-05-14T02:11:08;11.73;;;10.75;;
12816;SDS011;6473;51.552;6.716;2023-05-14T02:13:36;12.38;;;11.38;;
12816;SDS011;6473;51.552;6.716;2023-05-14T02:16:03;12.20;;;10.93;;
12816;SDS011;6473;51.552;6.716;2023-05-14T02:18:31;12.45;;;11.35;;
12816;SDS011;6473;51.552;6.716;2023-05-14T02:20:58;13.48;;;12.18;;
12816;SDS011;6473;51.552;6.716;2023-05-14T02:23:25;13.50;;;12.20;;
12816;SDS011;6473;51.552;6.716;2023-05-14T02:25:51;14.10;;;12.80;;
12816;SDS011;6473;51.552;6.716;2023-05-14T02:28:18;12.75;;;11.55;;
12816;SDS011;6473;51.552;6.716;2023-05-14T02:30:46;12.40;;;11.23;;
12816;SDS011;6473;51.552;6.716;2023-05-14T02:33:13;13.27;;;12.07;;
12816;SDS011;6473;51.552;6.716;2023-05-14T02:35:40;12.73;;;11.60;;
12816;SDS011;6473;51.552;6.716;2023-05-14T02:38:07;12.55;;;11.30;;
12816;SDS011;6473;51.552;6.716;2023-05-14T02:40:35;13.13;;;11.82;;
12816;SDS011;6473;51.552;6.716;2023-05-14T02:43:02;13.45;;;11.82;;
12816;SDS011;6473;51.552;6.716;2023-05-14T02:45:29;13.15;;;11.85;;
12816;SDS011;6473;51.552;6.716;2023-05-14T02:47:57;14.20;;;12.52;;
12816;SDS011;6473;51.552;6.716;2023-05-14T02:50:23;14.32;;;12.93;;
12816;SDS011;6473;51.552;6.716;2023-05-14T02:52:50;14.23;;;12.93;;
12816;SDS011;6473;51.552;6.716;2023-05-14T02:55:17;14.20;;;12.90;;
12816;SDS011;6473;51.552;6.716;2023-05-14T02:57:44;14.80;;;13.48;;
12816;SDS011;6473;51.552;6.716;2023-05-14T03:00:12;15.52;;;14.02;;
12816;SDS011;6473;51.552;6.716;2023-05-14T03:02:39;15.18;;;13.77;;
12816;SDS011;6473;51.552;6.716;2023-05-14T03:05:09;15.80;;;14.18;;
12816;SDS011;6473;51.552;6.716;2023-05-14T03:07:35;15.02;;;13.63;;
12816;SDS011;6473;51.552;6.716;2023-05-14T03:10:02;15.98;;;14.30;;
12816;SDS011;6473;51.552;6.716;2023-05-14T03:12:30;14.55;;;13.15;;
12816;SDS011;6473;51.552;6.716;2023-05-14T03:14:57;15.05;;;13.75;;
12816;SDS011;6473;51.552;6.716;2023-05-14T03:17:24;14.95;;;13.50;;
12816;SDS011;6473;51.552;6.716;2023-05-14T03:19:51;13.10;;;11.90;;
12816;SDS011;6473;51.552;6.716;2023-05-14T03:22:19;13.50;;;12.20;;
12816;SDS011;6473;51.552;6.716;2023-05-14T03:24:46;13.75;;;12.55;;
12816;SDS011;6473;51.552;6.716;2023-05-14T03:27:13;14.23;;;12.80;;
12816;SDS011;6473;51.552;6.716;2023-05-14T03:29:39;15.25;;;13.85;;
12816;SDS011;6473;51.552;6.716;2023-05-14T03:32:06;15.00;;;13.55;;
12816;SDS011;6473;51.552;6.716;2023-05-14T03:34:33;15.40;;;13.80;;
12816;SDS011;6473;51.552;6.716;2023-05-14T03:37:00;15.07;;;13.55;;
12816;SDS011;6473;51.552;6.716;2023-05-14T03:39:29;16.45;;;14.75;;
12816;SDS011;6473;51.552;6.716;2023-05-14T03:41:56;16.23;;;14.63;;
12816;SDS011;6473;51.552;6.716;2023-05-14T03:44:23;17.20;;;15.50;;
12816;SDS011;6473;51.552;6.716;2023-05-14T03:46:51;15.98;;;13.85;;
12816;SDS011;6473;51.552;6.716;2023-05-14T03:49:17;15.18;;;13.60;;
12816;SDS011;6473;51.552;6.716;2023-05-14T03:51:44;14.30;;;12.90;;
12816;SDS011;6473;51.552;6.716;2023-05-14T03:54:11;14.27;;;12.98;;
12816;SDS011;6473;51.552;6.716;2023-05-14T03:56:39;13.30;;;12.20;;
12816;SDS011;6473;51.552;6.716;2023-05-14T03:59:07;13.60;;;12.30;;
12816;SDS011;6473;51.552;6.716;2023-05-14T04:01:34;12.95;;;11.75;;
12816;SDS011;6473;51.552;6.716;2023-05-14T04:04:00;14.13;;;12.70;;
12816;SDS011;6473;51.552;6.716;2023-05-14T04:06:27;14.93;;;13.52;;
12816;SDS011;6473;51.552;6.716;2023-05-14T04:08:55;17.10;;;15.40;;
12816;SDS011;6473;51.552;6.716;2023-05-14T04:11:22;15.95;;;14.38;;
12816;SDS011;6473;51.552;6.716;2023-05-14T04:13:53;16.92;;;15.25;;
12816;SDS011;6473;51.552;6.716;2023-05-14T04:16:20;17.33;;;14.70;;
12816;SDS011;6473;51.552;6.716;2023-05-14T04:18:47;18.25;;;16.55;;
12816;SDS011;6473;51.552;6.716;2023-05-14T04:21:14;17.42;;;15.63;;
12816;SDS011;6473;51.552;6.716;2023-05-14T04:23:41;17.38;;;15.68;;
12816;SDS011;6473;51.552;6.716;2023-05-14T04:26:08;16.02;;;14.52;;
12816;SDS011;6473;51.552;6.716;2023-05-14T04:28:34;16.88;;;15.07;;
12816;SDS011;6473;51.552;6.716;2023-05-14T04:31:03;15.95;;;14.55;;
12816;SDS011;6473;51.552;6.716;2023-05-14T04:33:30;15.80;;;14.30;;
12816;SDS011;6473;51.552;6.716;2023-05-14T04:35:56;15.95;;;14.35;;
12816;SDS011;6473;51.552;6.716;2023-05-14T04:38:23;15.63;;;14.18;;
12816;SDS011;6473;51.552;6.716;2023-05-14T04:44:07;15.23;;;13.73;;
12816;SDS011;6473;51.552;6.716;2023-05-14T04:46:36;16.20;;;14.60;;
12816;SDS011;6473;51.552;6.716;2023-05-14T04:49:02;15.70;;;14.15;;
12816;SDS011;6473;51.552;6.716;2023-05-14T04:51:29;13.93;;;12.73;;
12816;SDS011;6473;51.552;6.716;2023-05-14T04:53:56;14.73;;;13.32;;
12816;SDS011;6473;51.552;6.716;2023-05-14T04:56:23;14.88;;;13.52;;
12816;SDS011;6473;51.552;6.716;2023-05-14T04:58:50;15.32;;;13.77;;
12816;SDS011;6473;51.552;6.716;2023-05-14T05:01:17;15.77;;;14.23;;
12816;SDS011;6473;51.552;6.716;2023-05-14T05:03:45;15.65;;;14.15;;
12816;SDS011;6473;51.552;6.716;2023-05-14T05:06:13;14.63;;;13.32;;
12816;SDS011;6473;51.552;6.716;2023-05-14T05:08:40;14.77;;;13.27;;
12816;SDS011;6473;51.552;6.716;2023-05-14T05:11:07;14.98;;;13.63;;
12816;SDS011;6473;51.552;6.716;2023-05-14T05:13:34;14.20;;;13.00;;
12816;SDS011;6473;51.552;6.716;2023-05-14T05:16:00;14.10;;;12.80;;
12816;SDS011;6473;51.552;6.716;2023-05-14T05:18:31;16.13;;;14.63;;
12816;SDS011;6473;51.552;6.716;2023-05-14T05:20:59;15.68;;;14.27;;
12816;SDS011;6473;51.552;6.716;2023-05-14T05:23:26;15.18;;;13.77;;
12816;SDS011;6473;51.552;6.716;2023-05-14T05:25:53;15.32;;;13.93;;
12816;SDS011;6473;51.552;6.716;2023-05-14T05:28:20;16.52;;;14.93;;
12816;SDS011;6473;51.552;6.716;2023-05-14T05:30:47;16.17;;;14.57;;
12816;SDS011;6473;51.552;6.716;2023-05-14T05:33:13;15.95;;;14.35;;
12816;SDS011;6473;51.552;6.716;2023-05-14T05:35:41;15.95;;;14.45;;
12816;SDS011;6473;51.552;6.716;2023-05-14T05:38:09;15.70;;;14.30;;
12816;SDS011;6473;51.552;6.716;2023-05-14T05:43:25;14.73;;;13.35;;
12816;SDS011;6473;51.552;6.716;2023-05-14T05:45:53;14.10;;;12.70;;
12816;SDS011;6473;51.552;6.716;2023-05-14T05:48:20;12.88;;;11.60;;
12816;SDS011;6473;51.552;6.716;2023-05-14T05:50:47;12.10;;;10.98;;
12816;SDS011;6473;51.552;6.716;2023-05-14T05:53:16;11.88;;;10.57;;
12816;SDS011;6473;51.552;6.716;2023-05-14T05:55:43;11.23;;;10.13;;
12816;SDS011;6473;51.552;6.716;2023-05-14T05:58:10;10.70;;;9.60;;
12816;SDS011;6473;51.552;6.716;2023-05-14T06:00:39;10.40;;;9.40;;
12816;SDS011;6473;51.552;6.716;2023-05-14T06:03:07;10.65;;;9.60;;
12816;SDS011;6473;51.552;6.716;2023-05-14T06:05:33;10.35;;;9.55;;
12816;SDS011;6473;51.552;6.716;2023-05-14T06:08:00;9.98;;;9.02;;
12816;SDS011;6473;51.552;6.716;2023-05-14T06:10:30;10.45;;;9.45;;
12816;SDS011;6473;51.552;6.716;2023-05-14T06:12:57;10.68;;;9.77;;
12816;SDS011;6473;51.552;6.716;2023-05-14T06:15:23;11.00;;;9.90;;
12816;SDS011;6473;51.552;6.716;2023-05-14T06:17:50;10.63;;;9.70;;
12816;SDS011;6473;51.552;6.716;2023-05-14T06:20:17;9.98;;;9.15;;
12816;SDS011;6473;51.552;6.716;2023-05-14T06:22:44;11.25;;;10.35;;
12816;SDS011;6473;51.552;6.716;2023-05-14T06:25:12;10.18;;;9.27;;
12816;SDS011;6473;51.552;6.716;2023-05-14T06:27:43;10.80;;;9.73;;
12816;SDS011;6473;51.552;6.716;2023-05-14T06:30:10;10.45;;;9.55;;
12816;SDS011;6473;51.552;6.716;2023-05-14T06:32:37;10.82;;;9.43;;
12816;SDS011;6473;51.552;6.716;2023-05-14T06:35:05;10.93;;;9.55;;
12816;SDS011;6473;51.552;6.716;2023-05-14T06:37:32;10.45;;;9.45;;
12816;SDS011;6473;51.552;6.716;2023-05-14T06:42:43;9.95;;;9.05;;
12816;SDS011;6473;51.552;6.716;2023-05-14T06:45:10;11.25;;;10.30;;
12816;SDS011;6473;51.552;6.716;2023-05-14T06:47:37;10.43;;;9.63;;
12816;SDS011;6473;51.552;6.716;2023-05-14T06:50:04;10.18;;;9.27;;
12816;SDS011;6473;51.552;6.716;2023-05-14T06:52:31;10.45;;;9.65;;
12816;SDS011;6473;51.552;6.716;2023-05-14T06:54:58;10.65;;;9.75;;
12816;SDS011;6473;51.552;6.716;2023-05-14T06:57:25;10.38;;;9.48;;
12816;SDS011;6473;51.552;6.716;2023-05-14T06:59:54;10.80;;;9.95;;
12816;SDS011;6473;51.552;6.716;2023-05-14T07:02:21;10.70;;;9.80;;
12816;SDS011;6473;51.552;6.716;2023-05-14T07:04:48;10.65;;;9.65;;
12816;SDS011;6473;51.552;6.716;2023-05-14T07:07:15;10.50;;;9.55;;
12816;SDS011;6473;51.552;6.716;2023-05-14T07:09:44;9.93;;;9.13;;
12816;SDS011;6473;51.552;6.716;2023-05-14T07:12:11;9.98;;;9.02;;
12816;SDS011;6473;51.552;6.716;2023-05-14T07:14:38;10.50;;;9.13;;
12816;SDS011;6473;51.552;6.716;2023-05-14T07:17:06;10.85;;;9.57;;
12816;SDS011;6473;51.552;6.716;2023-05-14T07:19:33;10.43;;;9.40;;
12816;SDS011;6473;51.552;6.716;2023-05-14T07:22:00;11.07;;;9.38;;
12816;SDS011;6473;51.552;6.716;2023-05-14T07:24:27;10.73;;;9.63;;
12816;SDS011;6473;51.552;6.716;2023-05-14T07:26:53;10.00;;;9.10;;
12816;SDS011;6473;51.552;6.716;2023-05-14T07:29:21;10.57;;;9.48;;
12816;SDS011;6473;51.552;6.716;2023-05-14T07:31:49;10.55;;;9.55;;
12816;SDS011;6473;51.552;6.716;2023-05-14T07:34:17;10.68;;;9.00;;
12816;SDS011;6473;51.552;6.716;2023-05-14T07:36:44;9.18;;;8.38;;
12816;SDS011;6473;51.552;6.716;2023-05-14T07:39:11;9.52;;;8.10;;
12816;SDS011;6473;51.552;6.716;2023-05-14T07:41:38;9.20;;;8.50;;
12816;SDS011;6473;51.552;6.716;2023-05-14T07:44:04;9.90;;;8.93;;
12816;SDS011;6473;51.552;6.716;2023-05-14T07:46:31;9.63;;;8.40;;
12816;SDS011;6473;51.552;6.716;2023-05-14T07:48:58;8.95;;;8.25;;
12816;SDS011;6473;51.552;6.716;2023-05-14T07:51:26;8.80;;;7.93;;
12816;SDS011;6473;51.552;6.716;2023-05-14T07:53:53;9.38;;;8.43;;
12816;SDS011;6473;51.552;6.716;2023-05-14T07:56:20;8.55;;;7.57;;
12816;SDS011;6473;51.552;6.716;2023-05-14T07:58:49;8.63;;;7.72;;
12816;SDS011;6473;51.552;6.716;2023-05-14T08:01:16;8.88;;;8.10;;
12816;SDS011;6473;51.552;6.716;2023-05-14T08:03:43;9.20;;;8.27;;
12816;SDS011;6473;51.552;6.716;2023-05-14T08:06:10;8.60;;;7.75;;
12816;SDS011;6473;51.552;6.716;2023-05-14T08:08:38;8.20;;;7.32;;
12816;SDS011;6473;51.552;6.716;2023-05-14T08:11:05;8.95;;;8.05;;
12816;SDS011;6473;51.552;6.716;2023-05-14T08:13:31;9.95;;;9.05;;
12816;SDS011;6473;51.552;6.716;2023-05-14T08:15:58;10.90;;;8.70;;
12816;SDS011;6473;51.552;6.716;2023-05-14T08:18:25;8.35;;;7.65;;
12816;SDS011;6473;51.552;6.716;2023-05-14T08:20:52;8.82;;;8.00;;
12816;SDS011;6473;51.552;6.716;2023-05-14T08:23:19;8.40;;;7.70;;
12816;SDS011;6473;51.552;6.716;2023-05-14T08:25:47;9.00;;;8.20;;
12816;SDS011;6473;51.552;6.716;2023-05-14T08:28:15;8.15;;;7.45;;
12816;SDS011;6473;51.552;6.716;2023-05-14T08:30:42;9.88;;;8.88;;
12816;SDS011;6473;51.552;6.716;2023-05-14T08:33:09;8.13;;;7.43;;
12816;SDS011;6473;51.552;6.716;2023-05-14T08:35:36;8.93;;;8.13;;
12816;SDS011;6473;51.552;6.716;2023-05-14T08:38:03;7.72;;;7.13;;
12816;SDS011;6473;51.552;6.716;2023-05-14T08:40:30;8.65;;;7.88;;
12816;SDS011;6473;51.552;6.716;2023-05-14T08:42:58;8.85;;;8.00;;
12816;SDS011;6473;51.552;6.716;2023-05-14T08:45:28;9.10;;;8.30;;
12816;SDS011;6473;51.552;6.716;2023-05-14T08:47:58;9.20;;;8.27;;
12816;SDS011;6473;51.552;6.716;2023-05-14T08:50:25;9.93;;;8.43;;
12816;SDS011;6473;51.552;6.716;2023-05-14T08:52:54;8.30;;;7.60;;
12816;SDS011;6473;51.552;6.716;2023-05-14T08:55:21;8.10;;;7.38;;
12816;SDS011;6473;51.552;6.716;2023-05-14T08:57:50;8.60;;;7.80;;
12816;SDS011;6473;51.552;6.716;2023-05-14T09:00:18;8.43;;;7.72;;
12816;SDS011;6473;51.552;6.716;2023-05-14T09:02:45;7.75;;;7.15;;
12816;SDS011;6473;51.552;6.716;2023-05-14T09:05:13;8.80;;;8.00;;
12816;SDS011;6473;51.552;6.716;2023-05-14T09:07:42;8.20;;;7.43;;
12816;SDS011;6473;51.552;6.716;2023-05-14T09:10:09;8.82;;;8.13;;
12816;SDS011;6473;51.552;6.716;2023-05-14T09:12:36;8.18;;;7.57;;
12816;SDS011;6473;51.552;6.716;2023-05-14T09:15:04;8.02;;;7.28;;
12816;SDS011;6473;51.552;6.716;2023-05-14T09:17:33;7.53;;;6.90;;
12816;SDS011;6473;51.552;6.716;2023-05-14T09:20:00;7.32;;;6.65;;
12816;SDS011;6473;51.552;6.716;2023-05-14T09:22:28;6.40;;;5.90;;
12816;SDS011;6473;51.552;6.716;2023-05-14T09:25:03;8.95;;;6.70;;
12816;SDS011;6473;51.552;6.716;2023-05-14T09:27:31;6.28;;;4.85;;
12816;SDS011;6473;51.552;6.716;2023-05-14T09:30:06;6.80;;;5.07;;
12816;SDS011;6473;51.552;6.716;2023-05-14T09:32:36;4.57;;;4.18;;
12816;SDS011;6473;51.552;6.716;2023-05-14T09:35:11;3.75;;;3.38;;
12816;SDS011;6473;51.552;6.716;2023-05-14T09:37:44;3.20;;;3.00;;
12816;SDS011;6473;51.552;6.716;2023-05-14T09:40:12;4.60;;;2.92;;
12816;SDS011;6473;51.552;6.716;2023-05-14T09:42:39;3.42;;;3.10;;
12816;SDS011;6473;51.552;6.716;2023-05-14T09:45:07;3.13;;;2.83;;
12816;SDS011;6473;51.552;6.716;2023-05-14T09:47:34;5.18;;;2.63;;
12816;SDS011;6473;51.552;6.716;2023-05-14T09:50:04;3.40;;;2.50;;
12816;SDS011;6473;51.552;6.716;2023-05-14T09:52:32;5.00;;;2.50;;
12816;SDS011;6473;51.552;6.716;2023-05-14T09:54:59;2.80;;;2.58;;
12816;SDS011;6473;51.552;6.716;2023-05-14T09:57:26;2.97;;;2.70;;
12816;SDS011;6473;51.552;6.716;2023-05-14T09:59:53;3.03;;;2.70;;
12816;SDS011;6473;51.552;6.716;2023-05-14T10:02:21;3.50;;;2.70;;
12816;SDS011;6473;51.552;6.716;2023-05-14T10:04:51;2.65;;;2.53;;
12816;SDS011;6473;51.552;6.716;2023-05-14T10:07:22;2.90;;;2.65;;
12816;SDS011;6473;51.552;6.716;2023-05-14T10:09:56;3.97;;;2.47;;
12816;SDS011;6473;51.552;6.716;2023-05-14T10:12:27;3.10;;;2.88;;
12816;SDS011;6473;51.552;6.716;2023-05-14T10:14:57;4.15;;;2.45;;
12816;SDS011;6473;51.552;6.716;2023-05-14T10:17:29;3.10;;;2.80;;
12816;SDS011;6473;51.552;6.716;2023-05-14T10:19:59;2.85;;;2.60;;
12816;SDS011;6473;51.552;6.716;2023-05-14T10:22:30;4.95;;;2.40;;
12816;SDS011;6473;51.552;6.716;2023-05-14T10:24:59;2.50;;;2.30;;
12816;SDS011;6473;51.552;6.716;2023-05-14T10:27:26;3.10;;;2.50;;
12816;SDS011;6473;51.552;6.716;2023-05-14T10:29:54;3.55;;;2.50;;
12816;SDS011;6473;51.552;6.716;2023-05-14T10:32:22;2.72;;;2.28;;
12816;SDS011;6473;51.552;6.716;2023-05-14T10:34:50;2.80;;;2.60;;
12816;SDS011;6473;51.552;6.716;2023-05-14T10:37:19;2.58;;;2.08;;
12816;SDS011;6473;51.552;6.716;2023-05-14T10:39:48;2.58;;;2.38;;
12816;SDS011;6473;51.552;6.716;2023-05-14T10:42:17;4.25;;;2.60;;
12816;SDS011;6473;51.552;6.716;2023-05-14T10:44:47;6.72;;;2.65;;
12816;SDS011;6473;51.552;6.716;2023-05-14T10:47:17;2.83;;;2.20;;
12816;SDS011;6473;51.552;6.716;2023-05-14T10:49:44;2.75;;;2.03;;
12816;SDS011;6473;51.552;6.716;2023-05-14T10:52:14;2.17;;;1.98;;
12816;SDS011;6473;51.552;6.716;2023-05-14T10:54:51;6.18;;;2.22;;
12816;SDS011;6473;51.552;6.716;2023-05-14T10:57:21;4.05;;;2.22;;
12816;SDS011;6473;51.552;6.716;2023-05-14T10:59:50;5.22;;;2.50;;
12816;SDS011;6473;51.552;6.716;2023-05-14T11:02:23;3.28;;;2.30;;
12816;SDS011;6473;51.552;6.716;2023-05-14T11:04:51;2.97;;;2.22;;
12816;SDS011;6473;51.552;6.716;2023-05-14T11:07:22;2.30;;;2.05;;
12816;SDS011;6473;51.552;6.716;2023-05-14T11:09:51;6.57;;;2.22;;
12816;SDS011;6473;51.552;6.716;2023-05-14T11:12:19;2.55;;;2.10;;
12816;SDS011;6473;51.552;6.716;2023-05-14T11:17:53;3.90;;;2.17;;
12816;SDS011;6473;51.552;6.716;2023-05-14T11:20:20;2.20;;;2.00;;
12816;SDS011;6473;51.552;6.716;2023-05-14T11:25:42;2.33;;;2.10;;
12816;SDS011;6473;51.552;6.716;2023-05-14T11:28:09;2.90;;;2.13;;
12816;SDS011;6473;51.552;6.716;2023-05-14T11:34:31;2.40;;;2.17;;
12816;SDS011;6473;51.552;6.716;2023-05-14T11:46:57;4.25;;;2.70;;
12816;SDS011;6473;51.552;6.716;2023-05-14T11:49:26;3.45;;;2.47;;
12816;SDS011;6473;51.552;6.716;2023-05-14T11:51:56;2.50;;;2.30;;
12816;SDS011;6473;51.552;6.716;2023-05-14T11:54:24;4.43;;;2.67;;
12816;SDS011;6473;51.552;6.716;2023-05-14T11:56:54;2.60;;;2.40;;
12816;SDS011;6473;51.552;6.716;2023-05-14T11:59:23;3.15;;;2.72;;
12816;SDS011;6473;51.552;6.716;2023-05-14T12:01:50;4.55;;;2.40;;
12816;SDS011;6473;51.552;6.716;2023-05-14T12:04:31;3.53;;;2.20;;
12816;SDS011;6473;51.552;6.716;2023-05-14T12:06:59;2.35;;;2.15;;
12816;SDS011;6473;51.552;6.716;2023-05-14T12:09:38;2.58;;;1.90;;
12816;SDS011;6473;51.552;6.716;2023-05-14T12:12:09;2.85;;;1.95;;
12816;SDS011;6473;51.552;6.716;2023-05-14T12:17:25;3.08;;;2.38;;
12816;SDS011;6473;51.552;6.716;2023-05-14T12:19:53;2.45;;;1.80;;
12816;SDS011;6473;51.552;6.716;2023-05-14T12:25:17;10.02;;;2.65;;
12816;SDS011;6473;51.552;6.716;2023-05-14T12:27:45;5.50;;;2.35;;
12816;SDS011;6473;51.552;6.716;2023-05-14T12:30:18;3.17;;;2.30;;
12816;SDS011;6473;51.552;6.716;2023-05-14T12:36:34;2.30;;;2.10;;
12816;SDS011;6473;51.552;6.716;2023-05-14T14:17:25;2.20;;;2.10;;
12816;SDS011;6473;51.552;6.716;2023-05-14T14:19:52;2.25;;;2.03;;
12816;SDS011;6473;51.552;6.716;2023-05-14T14:22:19;2.88;;;2.30;;
12816;SDS011;6473;51.552;6.716;2023-05-14T14:24:45;2.83;;;2.20;;
12816;SDS011;6473;51.552;6.716;2023-05-14T14:27:12;2.78;;;2.40;;
12816;SDS011;6473;51.552;6.716;2023-05-14T14:29:43;2.63;;;2.30;;
12816;SDS011;6473;51.552;6.716;2023-05-14T14:32:20;4.55;;;2.58;;
12816;SDS011;6473;51.552;6.716;2023-05-14T14:34:49;2.42;;;2.22;;
12816;SDS011;6473;51.552;6.716;2023-05-14T14:37:16;2.50;;;2.40;;
12816;SDS011;6473;51.552;6.716;2023-05-14T15:04:53;2.88;;;2.30;;
12816;SDS011;6473;51.552;6.716;2023-05-14T15:07:20;3.83;;;2.45;;
12816;SDS011;6473;51.552;6.716;2023-05-14T15:09:47;2.70;;;2.40;;
12816;SDS011;6473;51.552;6.716;2023-05-14T15:15:14;2.67;;;2.22;;
12816;SDS011;6473;51.552;6.716;2023-05-14T15:17:41;2.28;;;2.00;;
12816;SDS011;6473;51.552;6.716;2023-05-14T15:20:20;2.35;;;2.22;;
12816;SDS011;6473;51.552;6.716;2023-05-14T15:25:56;2.80;;;2.20;;
12816;SDS011;6473;51.552;6.716;2023-05-14T15:28:23;2.88;;;2.30;;
12816;SDS011;6473;51.552;6.716;2023-05-14T15:38:09;3.33;;;2.95;;
12816;SDS011;6473;51.552;6.716;2023-05-14T15:46:00;4.18;;;3.60;;
12816;SDS011;6473;51.552;6.716;2023-05-14T15:48:28;3.45;;;3.15;;
12816;SDS011;6473;51.552;6.716;2023-05-14T15:50:55;4.30;;;3.00;;
12816;SDS011;6473;51.552;6.716;2023-05-14T15:53:23;3.67;;;3.38;;
12816;SDS011;6473;51.552;6.716;2023-05-14T15:55:50;3.85;;;3.55;;
12816;SDS011;6473;51.552;6.716;2023-05-14T16:13:52;4.63;;;3.30;;
12816;SDS011;6473;51.552;6.716;2023-05-14T16:16:20;3.75;;;3.30;;
12816;SDS011;6473;51.552;6.716;2023-05-14T16:18:47;3.58;;;3.05;;
12816;SDS011;6473;51.552;6.716;2023-05-14T16:25:12;3.10;;;2.90;;
12816;SDS011;6473;51.552;6.716;2023-05-14T16:38:49;3.65;;;3.35;;
12816;SDS011;6473;51.552;6.716;2023-05-14T17:07:21;3.70;;;3.10;;
12816;SDS011;6473;51.552;6.716;2023-05-14T17:13:13;3.00;;;2.75;;
12816;SDS011;6473;51.552;6.716;2023-05-14T17:15:40;3.40;;;3.10;;
12816;SDS011;6473;51.552;6.716;2023-05-14T17:18:16;5.15;;;3.15;;
12816;SDS011;6473;51.552;6.716;2023-05-14T17:20:43;3.22;;;3.00;;
12816;SDS011;6473;51.552;6.716;2023-05-14T17:23:11;3.22;;;2.92;;
12816;SDS011;6473;51.552;6.716;2023-05-14T17:25:53;3.17;;;2.95;;
12816;SDS011;6473;51.552;6.716;2023-05-14T17:32:27;3.35;;;3.10;;
12816;SDS011;6473;51.552;6.716;2023-05-14T17:45:19;3.53;;;3.22;;
12816;SDS011;6473;51.552;6.716;2023-05-14T17:47:45;6.95;;;3.40;;
12816;SDS011;6473;51.552;6.716;2023-05-14T17:50:15;3.22;;;2.92;;
12816;SDS011;6473;51.552;6.716;2023-05-14T17:52:42;3.50;;;3.20;;
12816;SDS011;6473;51.552;6.716;2023-05-14T17:55:10;3.20;;;3.00;;
12816;SDS011;6473;51.552;6.716;2023-05-14T17:57:43;3.28;;;3.08;;
12816;SDS011;6473;51.552;6.716;2023-05-14T18:04:19;3.47;;;3.13;;
12816;SDS011;6473;51.552;6.716;2023-05-14T18:06:46;4.60;;;3.35;;
12816;SDS011;6473;51.552;6.716;2023-05-14T18:09:13;3.88;;;3.30;;
12816;SDS011;6473;51.552;6.716;2023-05-14T18:15:34;3.80;;;3.42;;
12816;SDS011;6473;51.552;6.716;2023-05-14T18:18:01;4.13;;;3.63;;
12816;SDS011;6473;51.552;6.716;2023-05-14T18:20:29;5.45;;;3.40;;
12816;SDS011;6473;51.552;6.716;2023-05-14T18:23:00;4.78;;;3.17;;
12816;SDS011;6473;51.552;6.716;2023-05-14T18:33:06;3.38;;;3.10;;
12816;SDS011;6473;51.552;6.716;2023-05-14T18:54:37;4.53;;;3.58;;
12816;SDS011;6473;51.552;6.716;2023-05-14T18:57:04;4.80;;;3.30;;
12816;SDS011;6473;51.552;6.716;2023-05-14T18:59:31;3.70;;;3.40;;
12816;SDS011;6473;51.552;6.716;2023-05-14T19:01:58;4.10;;;3.17;;
12816;SDS011;6473;51.552;6.716;2023-05-14T19:04:25;3.40;;;3.10;;
12816;SDS011;6473;51.552;6.716;2023-05-14T19:06:51;4.80;;;3.15;;
12816;SDS011;6473;51.552;6.716;2023-05-14T19:09:18;3.28;;;3.08;;
12816;SDS011;6473;51.552;6.716;2023-05-14T19:11:46;3.30;;;3.10;;
12816;SDS011;6473;51.552;6.716;2023-05-14T19:14:13;4.07;;;3.50;;
12816;SDS011;6473;51.552;6.716;2023-05-14T19:19:53;3.33;;;3.10;;
12816;SDS011;6473;51.552;6.716;2023-05-14T19:22:19;3.47;;;3.20;;
12816;SDS011;6473;51.552;6.716;2023-05-14T19:24:49;3.40;;;3.20;;
12816;SDS011;6473;51.552;6.716;2023-05-14T19:31:16;3.70;;;3.40;;
12816;SDS011;6473;51.552;6.716;2023-05-14T19:37:42;3.95;;;3.65;;
12816;SDS011;6473;51.552;6.716;2023-05-14T19:46:20;3.78;;;3.50;;
12816;SDS011;6473;51.552;6.716;2023-05-14T19:48:47;4.88;;;3.50;;
12816;SDS011;6473;51.552;6.716;2023-05-14T19:54:02;7.18;;;3.60;;
12816;SDS011;6473;51.552;6.716;2023-05-14T19:56:29;4.35;;;3.40;;
12816;SDS011;6473;51.552;6.716;2023-05-14T19:58:56;4.03;;;3.65;;
12816;SDS011;6473;51.552;6.716;2023-05-14T20:01:24;3.92;;;3.40;;
12816;SDS011;6473;51.552;6.716;2023-05-14T20:06:50;4.20;;;3.70;;
12816;SDS011;6473;51.552;6.716;2023-05-14T20:09:17;4.40;;;3.65;;
12816;SDS011;6473;51.552;6.716;2023-05-14T20:11:45;4.13;;;3.30;;